WetterOnline ( https://www.wetteronline.de )

Wetter aktuell Torgau

Aktuelles Wetter: Oschatz (152m)

6-stündlich | Neueste Meldungen
Ortszeit Temperatur Wetter
Do, 29.07. 2:00 17.7° C wolkenlos
Mi, 28.07. 20:00 22.4° C wolkenlos
Mi, 28.07. 14:00 23.0° C bedeckt
Mi, 28.07. 8:00 18.1° C bedeckt
Mi, 28.07. 2:00 16.2° C bewölkt
Di, 27.07. 20:00 24.2° C bedeckt
Di, 27.07. 14:00 25.0° C wolkig
Di, 27.07. 8:00 19.8° C wolkenlos
Ortszeit Temperatur Wetter
Do, 29.07. 2:00 17.7° C wolkenlos
Do, 29.07. 1:50 17.7° C wolkenlos
Do, 29.07. 1:40 18.1° C wolkenlos
Do, 29.07. 1:30 18.3° C wolkenlos
Do, 29.07. 1:20 18.3° C wolkenlos
Do, 29.07. 1:10 18.2° C fast wolkenlos
Do, 29.07. 1:00 18.8° C leicht bewölkt
Do, 29.07. 0:30 19.3° C bewölkt
Do, 29.07. 0:00 19.6° C bewölkt
Mi, 28.07. 23:30 19.2° C bedeckt
Mi, 28.07. 23:00 17.8° C fast wolkenlos
Ortszeit Relative Feuchte Sichtweite
Do, 29.07. 2:00 83% 45 km
Mi, 28.07. 20:00 56% >70 km
Mi, 28.07. 14:00 52% 55 km
Mi, 28.07. 8:00 91% 19 km
Mi, 28.07. 2:00 90% 35 km
Di, 27.07. 20:00 50% 60 km
Di, 27.07. 14:00 50% 60 km
Di, 27.07. 8:00 77% 55 km
Ortszeit Relative Feuchte Sichtweite
Do, 29.07. 2:00 83% 45 km
Do, 29.07. 1:50 83% -
Do, 29.07. 1:40 82% -
Do, 29.07. 1:30 81% 50 km
Do, 29.07. 1:20 81% -
Do, 29.07. 1:10 81% -
Do, 29.07. 1:00 78% 45 km
Do, 29.07. 0:30 74% 55 km
Do, 29.07. 0:00 70% 60 km
Mi, 28.07. 23:30 72% >70 km
Mi, 28.07. 23:00 81% 55 km
Ortszeit Niederschlagsmenge Niederschlagsart
Do, 29.07. 2:00 0.0 l/m2 in 6 Std. -
Mi, 28.07. 20:00 0.1 l/m2 in 12 Std. -
Mi, 28.07. 14:00 0.1 l/m2 in 6 Std. Regen
Mi, 28.07. 8:00 3 l/m2 in 12 Std. Regen
Mi, 28.07. 2:00 0.0 l/m2 in 6 Std. -
Di, 27.07. 20:00 0.1 l/m2 in 12 Std. -
Di, 27.07. 14:00 0.1 l/m2 in 6 Std. Niederschlag
Di, 27.07. 8:00 0.0 l/m2 in 12 Std. -
Ortszeit Niederschlagsmenge Niederschlagsart
Do, 29.07. 2:00 0.0 l/m2 in 1 Std. -
Do, 29.07. 1:50 keine Meldung -
Do, 29.07. 1:40 keine Meldung -
Do, 29.07. 1:30 0.0 l/m2 in 1 Std. -
Do, 29.07. 1:20 keine Meldung -
Do, 29.07. 1:10 keine Meldung -
Do, 29.07. 1:00 0.0 l/m2 in 1 Std. -
Do, 29.07. 0:30 0.0 l/m2 in 1 Std. -
Do, 29.07. 0:00 0.0 l/m2 in 1 Std. -
Mi, 28.07. 23:30 0.0 l/m2 in 1 Std. -
Mi, 28.07. 23:00 0.0 l/m2 in 1 Std. -
Ortszeit Stärke Spitze Richtung
km/h Bft. km/h Grad Sektor
Do, 29.07. 2:00 13 3 31 230° SW
Mi, 28.07. 20:00 11 2 32 230° SW
Mi, 28.07. 14:00 18 3 32 250° W
Mi, 28.07. 8:00 11 2 35 220° SW
Mi, 28.07. 2:00 4 1 14 230° SW
Di, 27.07. 20:00 11 2 43 230° SW
Di, 27.07. 14:00 22 4 36 240° SW
Di, 27.07. 8:00 14 3 29 230° SW
Ortszeit Stärke Spitze Richtung
km/h Bft. km/h Grad Sektor
Do, 29.07. 2:00 13 3 28 230° SW
Do, 29.07. 1:50 13 3 - 230° SW
Do, 29.07. 1:40 14 3 - 230° SW
Do, 29.07. 1:30 17 3 26 230° SW
Do, 29.07. 1:20 17 3 - 230° SW
Do, 29.07. 1:10 15 3 - 230° SW
Do, 29.07. 1:00 13 3 28 220° SW
Do, 29.07. 0:30 17 3 28 230° SW
Do, 29.07. 0:00 17 3 31 220° SW
Mi, 28.07. 23:30 13 3 20 230° SW
Mi, 28.07. 23:00 7 2 14 230° SW
Ortszeit Untergrenze Bedeckung Gattung
total tief tief mittel hoch
Do, 29.07. 2:00 - 0/8 0/8 - - -
Mi, 28.07. 20:00 - 0/8 0/8 - - -
Mi, 28.07. 14:00 3900 m 8/8 8/8 - - -
Mi, 28.07. 8:00 3000 m 8/8 8/8 - - -
Mi, 28.07. 2:00 5700 m 8/8 4/8 - - -
Di, 27.07. 20:00 6300 m 8/8 8/8 - - -
Di, 27.07. 14:00 1500 m 7/8 2/8 - - -
Di, 27.07. 8:00 - 0/8 0/8 - - -
Ortszeit Bedeckungsgrad in Achtel und Wolkenuntergrenze
Do, 29.07. 2:00 keine Wolken
Do, 29.07. 1:50 keine Wolken
Do, 29.07. 1:40 keine Wolken
Do, 29.07. 1:30 keine Wolken
Do, 29.07. 1:20 keine Wolken
Do, 29.07. 1:10 1(1800m)
Do, 29.07. 1:00 3(1800m) 3(3300m)
Do, 29.07. 0:30 6(2100m) 8(3000m)
Do, 29.07. 0:00 1(1800m) 4(2100m) 8(3000m)
Mi, 28.07. 23:30 8(3000m) 8(3300m)
Mi, 28.07. 23:00 1(3300m)
Ortszeit Luftdruck NN (hPa) Tendenz (hPa in 3 Std.)
Do, 29.07. 2:00 1013 + 0,1
Mi, 28.07. 20:00 1011 - 0,9
Mi, 28.07. 14:00 1012 0,0
Mi, 28.07. 8:00 1012 - 0,3
Mi, 28.07. 2:00 1012 - 1,1
Di, 27.07. 20:00 1012 - 0,5
Di, 27.07. 14:00 1013 - 0,2
Di, 27.07. 8:00 1014 + 0,9
Ortszeit Luftdruck NN (hPa) Tendenz (hPa in 3 Std.)
Do, 29.07. 2:00 1013 + 0,1
Do, 29.07. 1:50 1013 keine Meldung
Do, 29.07. 1:40 1013 keine Meldung
Do, 29.07. 1:30 1013 + 0,2
Do, 29.07. 1:20 1013 keine Meldung
Do, 29.07. 1:10 1013 keine Meldung
Do, 29.07. 1:00 1013 + 0,1
Do, 29.07. 0:30 1013 + 0,4
Do, 29.07. 0:00 1013 + 0,5
Mi, 28.07. 23:30 1012 + 0,5
Mi, 28.07. 23:00 1013 + 0,8
Ortszeit Schneehöhe (cm)
Do, 29.07. 2:00 -
Mi, 28.07. 20:00 -
Mi, 28.07. 14:00 -
Mi, 28.07. 8:00 -
Mi, 28.07. 2:00 -
Di, 27.07. 20:00 -
Di, 27.07. 14:00 -
Di, 27.07. 8:00 -
Ortszeit Schneehöhe (cm)
Do, 29.07. 2:00 -
Do, 29.07. 1:50 -
Do, 29.07. 1:40 -
Do, 29.07. 1:30 -
Do, 29.07. 1:20 -
Do, 29.07. 1:10 -
Do, 29.07. 1:00 -
Do, 29.07. 0:30 -
Do, 29.07. 0:00 -
Mi, 28.07. 23:30 -
Mi, 28.07. 23:00 -
Link zu dieser Seite / Seite empfehlen

Das Wetter in ...